createdAt,value
2022-08-26T00:01:45.338Z,22.48
2022-08-26T00:06:48.509Z,22.42
2022-08-26T00:11:52.239Z,22.34
2022-08-26T00:16:55.175Z,22.28
2022-08-26T00:21:58.201Z,22.22
2022-08-26T00:27:00.957Z,22.09
2022-08-26T00:32:04.177Z,21.98
2022-08-26T00:37:08.725Z,21.89
2022-08-26T00:42:13.100Z,21.81
2022-08-26T00:47:34.113Z,21.80
2022-08-26T00:52:37.748Z,21.83
2022-08-26T00:57:42.582Z,21.85
2022-08-26T01:02:47.686Z,21.84
2022-08-26T01:07:50.772Z,21.82
2022-08-26T01:12:58.219Z,21.77
2022-08-26T01:18:04.070Z,21.70
2022-08-26T01:23:08.678Z,21.69
2022-08-26T01:28:21.825Z,21.66
2022-08-26T01:33:31.799Z,21.60
2022-08-26T01:38:45.244Z,21.54
2022-08-26T01:43:53.339Z,21.49
2022-08-26T01:49:00.263Z,21.40
2022-08-26T01:54:06.001Z,21.26
2022-08-26T01:59:12.539Z,21.14
2022-08-26T02:04:39.981Z,21.07
2022-08-26T02:09:51.152Z,21.00
2022-08-26T02:14:58.119Z,20.94
2022-08-26T02:20:02.434Z,20.93
2022-08-26T02:25:12.111Z,20.89
2022-08-26T02:30:25.442Z,20.88
2022-08-26T02:35:29.184Z,20.94
2022-08-26T02:40:39.313Z,20.97
2022-08-26T02:45:43.047Z,20.98
2022-08-26T02:50:46.356Z,21.00
2022-08-26T02:55:49.589Z,21.00
2022-08-26T03:00:53.786Z,20.98
2022-08-26T03:05:57.718Z,20.93
2022-08-26T03:11:01.665Z,20.88
2022-08-26T03:16:05.043Z,20.85
2022-08-26T03:21:14.570Z,20.80
2022-08-26T03:26:17.478Z,20.69
2022-08-26T03:31:20.200Z,20.59
2022-08-26T03:36:27.559Z,20.57
2022-08-26T03:41:32.722Z,20.57
2022-08-26T03:46:35.632Z,20.60
2022-08-26T03:51:39.215Z,20.61
2022-08-26T03:56:41.935Z,20.62
2022-08-26T04:01:44.690Z,20.64
2022-08-26T04:06:47.619Z,20.61
2022-08-26T04:11:50.896Z,20.55
2022-08-26T04:16:56.706Z,20.51
2022-08-26T04:22:00.267Z,20.48
2022-08-26T04:27:03.869Z,20.42
2022-08-26T04:32:08.820Z,20.39
2022-08-26T04:37:12.113Z,20.43
2022-08-26T04:42:19.886Z,20.47
2022-08-26T04:47:32.212Z,20.51
2022-08-26T04:52:36.894Z,20.54
2022-08-26T04:57:40.465Z,20.60
2022-08-26T05:02:43.299Z,20.66
2022-08-26T05:07:46.012Z,20.73
2022-08-26T05:12:49.090Z,20.80
2022-08-26T05:17:52.053Z,20.86
2022-08-26T05:22:54.726Z,20.92
2022-08-26T05:27:58.126Z,21.01
2022-08-26T05:33:02.015Z,21.14
2022-08-26T05:38:12.390Z,21.32
2022-08-26T05:43:16.849Z,21.47
2022-08-26T05:48:24.356Z,21.62
2022-08-26T05:53:27.372Z,21.78
2022-08-26T05:58:30.063Z,21.97
2022-08-26T06:03:37.433Z,22.23
2022-08-26T06:08:41.005Z,22.48
2022-08-26T06:13:45.042Z,22.72
2022-08-26T06:18:50.993Z,23.00
2022-08-26T06:24:13.665Z,23.27
2022-08-26T06:29:24.041Z,23.46
2022-08-26T06:34:31.092Z,23.46
2022-08-26T06:39:34.599Z,23.46
2022-08-26T06:44:38.046Z,23.51
2022-08-26T06:49:44.223Z,23.65
2022-08-26T06:54:47.285Z,23.82
2022-08-26T06:59:51.237Z,24.13
2022-08-26T07:04:54.436Z,24.48
2022-08-26T07:10:00.475Z,24.78
2022-08-26T07:15:04.922Z,25.00
2022-08-26T07:20:09.107Z,25.15
2022-08-26T07:25:12.329Z,25.35
2022-08-26T07:30:15.224Z,25.56
2022-08-26T07:35:18.459Z,25.82
2022-08-26T07:40:22.408Z,26.09
2022-08-26T07:45:25.394Z,26.34
2022-08-26T07:50:49.294Z,26.58
2022-08-26T07:55:51.556Z,26.90
2022-08-26T08:00:55.195Z,26.85
2022-08-26T08:05:57.973Z,26.63
2022-08-26T08:11:01.460Z,26.61
2022-08-26T08:16:05.738Z,26.54
2022-08-26T08:21:21.151Z,26.51
2022-08-26T08:26:26.642Z,26.63
2022-08-26T08:31:55.766Z,26.75
2022-08-26T08:36:57.198Z,26.92
2022-08-26T08:42:06.567Z,27.08
2022-08-26T08:47:35.626Z,27.29
2022-08-26T08:52:41.474Z,27.83
2022-08-26T08:58:02.271Z,28.13
2022-08-26T09:03:37.746Z,28.22
2022-08-26T09:08:41.718Z,28.30
2022-08-26T09:13:54.166Z,28.30
2022-08-26T09:19:35.022Z,28.25
2022-08-26T09:24:41.884Z,28.30
2022-08-26T09:29:51.001Z,28.43
2022-08-26T09:35:00.197Z,29.05
2022-08-26T09:40:34.554Z,29.68
2022-08-26T09:45:41.450Z,30.17
2022-08-26T09:50:54.812Z,30.42
2022-08-26T09:56:22.156Z,30.77
2022-08-26T10:01:34.969Z,30.71
2022-08-26T10:06:43.738Z,30.82
2022-08-26T10:11:51.979Z,31.06
2022-08-26T10:17:02.508Z,31.33
2022-08-26T10:22:16.805Z,31.54
2022-08-26T10:27:53.403Z,31.58
2022-08-26T10:33:03.889Z,31.50
2022-08-26T10:38:15.196Z,31.34
2022-08-26T10:43:26.400Z,31.27
2022-08-26T10:49:00.057Z,31.18
2022-08-26T10:54:29.103Z,31.07
2022-08-26T10:59:56.197Z,31.00
2022-08-26T11:05:16.971Z,30.91
2022-08-26T11:10:19.837Z,30.83
2022-08-26T11:15:26.508Z,30.78
2022-08-26T11:20:42.329Z,30.71
2022-08-26T11:26:08.725Z,30.62
2022-08-26T11:31:34.552Z,30.67
2022-08-26T11:36:40.750Z,30.94
2022-08-26T11:41:46.750Z,31.40
2022-08-26T11:47:00.997Z,32.06
2022-08-26T11:52:18.119Z,32.66
2022-08-26T11:57:24.160Z,33.18
2022-08-26T12:02:27.999Z,33.62
2022-08-26T12:07:30.838Z,33.98
2022-08-26T12:12:37.872Z,34.21
2022-08-26T12:17:41.968Z,34.38
2022-08-26T12:22:48.148Z,34.44
2022-08-26T12:27:54.081Z,34.34
2022-08-26T12:33:14.174Z,34.29
2022-08-26T12:38:28.123Z,34.51
2022-08-26T12:43:40.633Z,34.48
2022-08-26T12:48:48.968Z,34.19
2022-08-26T12:53:52.563Z,33.88
2022-08-26T12:59:10.242Z,33.66
2022-08-26T13:04:35.361Z,33.44
2022-08-26T13:09:38.674Z,33.31
2022-08-26T13:14:41.578Z,33.24
2022-08-26T13:19:44.429Z,33.18
2022-08-26T13:24:47.487Z,33.39
2022-08-26T13:29:51.417Z,33.79
2022-08-26T13:34:55.752Z,34.02
2022-08-26T13:39:59.305Z,34.09
2022-08-26T13:45:02.893Z,34.16
2022-08-26T13:50:06.454Z,34.26
2022-08-26T13:55:12.095Z,34.37
2022-08-26T14:00:17.477Z,34.24
2022-08-26T14:05:20.343Z,34.04
2022-08-26T14:10:24.285Z,33.85
2022-08-26T14:15:28.023Z,33.60
2022-08-26T14:20:33.666Z,33.31
2022-08-26T14:25:36.463Z,33.06
2022-08-26T14:30:42.441Z,32.88
2022-08-26T14:35:49.006Z,33.19
2022-08-26T14:40:52.958Z,34.43
2022-08-26T14:45:56.067Z,35.68
2022-08-26T14:50:59.073Z,36.61
2022-08-26T14:56:02.491Z,37.84
2022-08-26T15:01:07.952Z,39.08
2022-08-26T15:06:11.675Z,40.24
2022-08-26T15:11:14.783Z,41.24
2022-08-26T15:16:17.724Z,42.15
2022-08-26T15:21:22.244Z,42.71
2022-08-26T15:26:25.235Z,43.24
2022-08-26T15:31:31.465Z,43.71
2022-08-26T15:36:37.290Z,44.07
2022-08-26T15:41:41.217Z,44.34
2022-08-26T15:46:44.710Z,44.55
2022-08-26T15:51:50.712Z,44.79
2022-08-26T15:56:53.942Z,44.95
2022-08-26T16:01:58.231Z,44.89
2022-08-26T16:07:01.470Z,44.79
2022-08-26T16:12:04.601Z,44.66
2022-08-26T16:17:07.483Z,43.84
2022-08-26T16:22:10.391Z,41.50
2022-08-26T16:27:13.242Z,39.59
2022-08-26T16:32:16.399Z,38.08
2022-08-26T16:37:19.303Z,36.97
2022-08-26T16:42:22.309Z,36.05
2022-08-26T16:47:25.728Z,35.29
2022-08-26T16:52:30.184Z,34.67
2022-08-26T16:57:39.647Z,34.12
2022-08-26T17:02:42.555Z,33.66
2022-08-26T17:07:45.532Z,33.16
2022-08-26T17:12:48.943Z,32.65
2022-08-26T17:17:52.262Z,32.23
2022-08-26T17:22:55.623Z,31.81
2022-08-26T17:27:59.368Z,31.43
2022-08-26T17:33:02.379Z,31.11
2022-08-26T17:38:14.095Z,30.79
2022-08-26T17:43:17.820Z,30.45
2022-08-26T17:48:20.496Z,30.12
2022-08-26T17:53:24.994Z,29.83
2022-08-26T17:58:27.693Z,29.54
2022-08-26T18:03:32.687Z,29.34
2022-08-26T18:08:35.690Z,29.11
2022-08-26T18:13:39.389Z,28.90
2022-08-26T18:18:53.531Z,28.69
2022-08-26T18:23:57.473Z,28.52
2022-08-26T18:29:00.414Z,28.34
2022-08-26T18:34:03.468Z,28.14
2022-08-26T18:39:08.430Z,27.91
2022-08-26T18:44:13.823Z,27.66
2022-08-26T18:49:19.033Z,27.46
2022-08-26T18:54:22.188Z,27.30
2022-08-26T18:59:29.712Z,27.15
2022-08-26T19:04:33.313Z,26.99
2022-08-26T19:09:36.512Z,26.81
2022-08-26T19:14:39.269Z,26.62
2022-08-26T19:19:42.206Z,26.44
2022-08-26T19:24:44.917Z,26.28
2022-08-26T19:29:47.837Z,26.15
2022-08-26T19:34:52.233Z,26.01
2022-08-26T19:39:55.069Z,25.87
2022-08-26T19:45:24.726Z,25.74
2022-08-26T19:50:30.706Z,25.60
2022-08-26T19:55:33.868Z,25.47
2022-08-26T20:00:39.779Z,25.32
2022-08-26T20:05:42.629Z,25.16
2022-08-26T20:10:46.810Z,25.04
2022-08-26T20:15:49.534Z,24.92
2022-08-26T20:21:30.771Z,24.80
2022-08-26T20:26:35.518Z,24.64
2022-08-26T20:31:39.414Z,24.47
2022-08-26T20:36:43.189Z,24.35
2022-08-26T20:41:46.073Z,24.20
2022-08-26T20:46:49.181Z,24.08
2022-08-26T20:51:52.739Z,23.90
2022-08-26T20:56:57.056Z,23.77
2022-08-26T21:02:00.657Z,23.70
2022-08-26T21:07:03.564Z,23.62
2022-08-26T21:12:08.105Z,23.57
2022-08-26T21:17:11.008Z,23.51
2022-08-26T21:22:14.348Z,23.39
2022-08-26T21:27:17.686Z,23.26
2022-08-26T21:32:29.244Z,23.16
2022-08-26T21:37:32.353Z,23.05
2022-08-26T21:42:36.176Z,22.97
2022-08-26T21:47:39.724Z,22.88
2022-08-26T21:52:42.597Z,22.77
2022-08-26T21:57:45.808Z,22.70
2022-08-26T22:02:50.453Z,22.68
2022-08-26T22:07:53.776Z,22.67
2022-08-26T22:12:56.773Z,22.65
2022-08-26T22:17:59.782Z,22.60
2022-08-26T22:23:02.785Z,22.54
2022-08-26T22:28:06.502Z,22.46
2022-08-26T22:33:09.923Z,22.36
2022-08-26T22:38:13.722Z,22.20
2022-08-26T22:43:18.559Z,22.12
2022-08-26T22:48:24.174Z,22.09
2022-08-26T22:53:27.388Z,22.05
2022-08-26T22:58:30.981Z,21.99
2022-08-26T23:03:35.322Z,21.91
2022-08-26T23:08:39.676Z,21.83
2022-08-26T23:13:42.987Z,21.76
2022-08-26T23:18:46.093Z,21.73
2022-08-26T23:23:49.071Z,21.70
2022-08-26T23:28:53.436Z,21.68
2022-08-26T23:34:15.184Z,21.65
2022-08-26T23:39:18.187Z,21.58
2022-08-26T23:44:21.436Z,21.52
2022-08-26T23:49:25.625Z,21.45
2022-08-26T23:54:28.540Z,21.40
2022-08-26T23:59:32.005Z,21.36
